.
WxDataArchive / Data Records for 2012-11-27
2012-11-26 November 2012 2012-11-28

Data Records for Tuesday, 27 November 2012

Time	Temp	Chill	HIndex	Humid	Dewpt	 Wind 	HiWind	WindDir	Rain 	Barom 
-----	----	-----	------	-----	-----	------	------	-------	-----	----- 
00:00	32.2	32.2	32.2	71	23.9	0	1	338	0.00	30.315 
00:05	32.2	32.2	32.2	72	24.2	0	1	338	0.00	30.315 
00:10	32.1	32.1	32.1	73	24.4	0	1	338	0.00	30.315 
00:15	32.1	32.1	32.1	74	24.8	0	0	---	0.00	30.313 
00:20	31.9	31.9	31.9	74	24.6	0	0	---	0.00	30.313 
00:25	31.8	31.8	31.8	75	24.8	0	0	---	0.00	30.313 
00:30	31.8	31.8	31.8	75	24.8	0	0	---	0.00	30.314 
00:35	31.8	31.8	31.8	75	24.8	0	0	---	0.00	30.314 
00:40	31.8	31.8	31.8	76	25.1	0	0	---	0.00	30.314 
00:45	31.8	31.8	31.8	77	25.4	0	0	---	0.00	30.311 
00:50	31.6	31.6	31.6	77	25.2	0	0	---	0.00	30.311 
00:55	31.6	31.6	31.6	77	25.2	0	0	---	0.00	30.311 
01:00	31.6	31.6	31.6	77	25.2	0	0	---	0.00	30.306 
01:05	31.5	31.5	31.5	77	25.1	0	0	---	0.00	30.306 
01:10	31.5	31.5	31.5	77	25.1	0	0	---	0.00	30.306 
01:15	31.5	31.5	31.5	77	25.1	0	0	---	0.00	30.301 
01:20	31.3	31.3	31.3	77	24.9	0	0	---	0.00	30.301 
01:25	31.3	31.3	31.3	77	24.9	0	0	---	0.00	30.301 
01:30	31.3	31.3	31.3	77	24.9	0	0	---	0.00	30.304 
01:35	31.2	31.2	31.2	78	25.2	0	0	---	0.00	30.304 
01:40	31.2	31.2	31.2	78	25.2	0	0	---	0.00	30.304 
01:45	31.2	31.2	31.2	78	25.2	0	0	---	0.00	30.303 
01:50	31.2	31.2	31.2	78	25.2	0	1	338	0.00	30.303 
01:55	31.2	31.2	31.2	78	25.2	0	0	---	0.00	30.303 
02:00	31.2	31.2	31.2	77	24.8	0	1	338	0.00	30.301 
02:05	31.2	31.2	31.2	76	24.5	0	0	---	0.00	30.301 
02:10	31.3	31.3	31.3	75	24.3	0	0	---	0.00	30.301 
02:15	31.3	31.3	31.3	74	24.0	0	0	---	0.00	30.302 
02:20	31.3	31.3	31.3	74	24.0	0	0	---	0.00	30.302 
02:25	31.5	31.5	31.5	73	23.9	0	0	---	0.00	30.302 
02:30	31.5	31.5	31.5	73	23.9	0	0	---	0.00	30.301 
02:35	31.5	31.5	31.5	72	23.5	0	0	---	0.00	30.301 
02:40	31.5	31.5	31.5	71	23.2	0	0	---	0.00	30.301 
02:45	31.5	31.5	31.5	71	23.2	0	1	338	0.00	30.301 
02:50	31.5	31.5	31.5	70	22.9	0	1	338	0.00	30.301 
02:55	31.5	31.5	31.5	70	22.9	0	1	338	0.00	30.301 
03:00	31.5	31.5	31.5	69	22.5	0	1	338	0.00	30.304 
03:05	31.5	31.5	31.5	69	22.5	0	1	338	0.00	30.304 
03:10	31.5	31.5	31.5	69	22.5	0	0	---	0.00	30.304 
03:15	31.3	31.3	31.3	69	22.3	0	1	338	0.00	30.304 
03:20	31.3	31.3	31.3	69	22.3	0	0	---	0.00	30.304 
03:25	31.3	31.3	31.3	69	22.3	0	1	338	0.00	30.304 
03:30	31.2	31.2	31.2	69	22.2	0	0	---	0.00	30.303 
03:35	31.0	31.0	31.0	69	22.0	0	0	---	0.00	30.303 
03:40	30.9	30.9	30.9	69	21.9	0	0	---	0.00	30.303 
03:45	30.7	30.7	30.7	69	21.8	0	0	---	0.00	30.302 
03:50	30.6	30.6	30.6	69	21.7	0	0	---	0.00	30.302 
03:55	30.3	30.3	30.3	70	21.7	0	0	---	0.00	30.302 
04:00	30.1	30.1	30.1	70	21.5	0	1	338	0.00	30.303 
04:05	30.0	30.0	30.0	70	21.4	0	0	---	0.00	30.303 
04:10	29.7	29.7	29.7	71	21.5	0	0	---	0.00	30.303 
04:15	29.5	29.5	29.5	71	21.3	0	0	---	0.00	30.305 
04:20	29.5	29.5	29.5	72	21.6	0	0	---	0.00	30.305 
04:25	29.4	29.4	29.4	72	21.5	0	0	---	0.00	30.305 
04:30	29.4	29.4	29.4	72	21.5	0	0	---	0.00	30.306 
04:35	29.4	29.4	29.4	72	21.5	0	0	---	0.00	30.306 
04:40	29.4	29.4	29.4	73	21.8	0	0	---	0.00	30.306 
04:45	29.4	29.4	29.4	73	21.8	0	0	---	0.00	30.308 
04:50	29.5	29.5	29.5	73	21.9	0	0	---	0.00	30.308 
04:55	29.5	29.5	29.5	73	21.9	0	1	338	0.00	30.308 
05:00	29.7	29.7	29.7	73	22.1	0	1	338	0.00	30.320 
05:05	29.8	29.8	29.8	73	22.2	0	0	---	0.00	30.320 
05:10	29.8	29.8	29.8	72	21.9	0	0	---	0.00	30.320 
05:15	30.0	30.0	30.0	72	22.1	0	1	338	0.00	30.321 
05:20	30.0	30.0	30.0	72	22.1	0	1	338	0.00	30.321 
05:25	30.0	30.0	30.0	71	21.8	0	1	338	0.00	30.321 
05:30	30.1	30.1	30.1	70	21.5	0	1	338	0.00	30.324 
05:35	30.1	30.1	30.1	68	20.8	0	1	338	0.00	30.324 
05:40	30.1	30.1	30.1	67	20.5	0	1	338	0.00	30.324 
05:45	30.1	30.1	30.1	66	20.1	0	1	338	0.00	30.323 
05:50	30.3	30.3	30.3	66	20.3	0	0	---	0.00	30.323 
05:55	30.1	30.1	30.1	66	20.1	0	0	---	0.00	30.323 
06:00	30.1	30.1	30.1	67	20.5	0	1	338	0.00	30.325 
06:05	30.1	30.1	30.1	67	20.5	0	1	338	0.00	30.325 
06:10	30.1	30.1	30.1	67	20.5	0	1	338	0.00	30.325 
06:15	30.1	30.1	30.1	66	20.1	0	2	338	0.00	30.329 
06:20	30.3	30.3	30.3	64	19.6	0	3	338	0.00	30.329 
06:25	30.3	30.3	30.3	63	19.2	0	3	292	0.00	30.329 
06:30	30.3	30.3	30.3	63	19.2	0	1	292	0.00	30.325 
06:35	30.3	30.3	30.3	63	19.2	0	0	---	0.00	30.325 
06:40	30.1	30.1	30.1	63	19.0	0	1	292	0.00	30.325 
06:45	30.0	30.0	30.0	63	19.0	0	1	292	0.00	30.328 
06:50	29.7	29.7	29.7	63	18.7	0	1	292	0.00	30.328 
06:55	29.5	29.5	29.5	63	18.5	0	1	292	0.00	30.328 
07:00	29.4	29.4	29.4	63	18.4	0	1	292	0.00	30.339 
07:05	29.3	29.3	29.3	63	18.3	0	0	---	0.00	30.339 
07:10	29.1	29.1	29.1	64	18.5	0	0	---	0.00	30.339 
07:15	29.0	29.0	29.0	64	18.4	0	0	---	0.00	30.344 
07:20	28.7	28.7	28.7	64	18.1	0	0	---	0.00	30.344 
07:25	28.5	28.5	28.5	64	17.9	0	0	---	0.00	30.344 
07:30	28.2	28.2	28.2	65	18.0	0	0	---	0.00	30.352 
07:35	27.9	27.9	27.9	65	17.7	0	0	---	0.00	30.352 
07:40	27.6	27.6	27.6	66	17.8	0	0	---	0.00	30.352 
07:45	27.5	27.5	27.5	67	18.0	0	0	---	0.00	30.357 
07:50	27.3	27.3	27.3	68	18.2	0	0	---	0.00	30.357 
07:55	27.2	27.2	27.2	69	18.4	0	0	---	0.00	30.357 
08:00	27.3	27.3	27.3	69	18.5	0	0	---	0.00	30.359 
08:05	27.3	27.3	27.3	69	18.5	0	0	---	0.00	30.359 
08:10	27.5	27.5	27.5	69	18.7	0	1	338	0.00	30.359 
08:15	27.6	27.6	27.6	69	18.8	0	1	338	0.00	30.366 
08:20	28.1	28.1	28.1	69	19.3	0	0	---	0.00	30.366 
08:25	28.4	28.4	28.4	68	19.2	0	0	---	0.00	30.366 
08:30	28.7	28.7	28.7	67	19.2	0	0	---	0.00	30.373 
08:35	29.0	29.0	29.0	66	19.1	0	0	---	0.00	30.373 
08:40	29.3	29.3	29.3	65	19.0	0	0	---	0.00	30.373 
08:45	29.4	29.4	29.4	65	19.1	0	0	---	0.00	30.374 
08:50	29.5	29.5	29.5	63	18.5	0	0	---	0.00	30.374 
08:55	29.7	29.7	29.7	62	18.3	0	0	---	0.00	30.374 
09:00	29.8	29.8	29.8	62	18.4	0	0	---	0.00	30.373 
09:05	30.0	30.0	30.0	61	18.2	0	1	315	0.00	30.373 
09:10	30.1	30.1	30.1	61	18.3	0	1	315	0.00	30.373 
09:15	30.3	30.3	30.3	60	18.1	0	1	315	0.00	30.376 
09:20	30.6	30.6	30.6	59	18.0	0	0	---	0.00	30.376 
09:25	30.9	30.9	30.9	58	17.9	0	2	135	0.00	30.376 
09:30	31.0	31.0	31.0	58	18.0	0	1	135	0.00	30.380 
09:35	31.2	31.2	31.2	57	17.8	0	2	135	0.00	30.380 
09:40	31.0	31.0	31.0	57	17.6	0	1	135	0.00	30.380 
09:45	30.9	30.9	30.9	58	17.9	0	1	135	0.00	30.388 
09:50	31.0	31.0	31.0	58	18.0	0	1	135	0.00	30.388 
09:55	31.0	31.0	31.0	56	17.2	0	2	135	0.00	30.388 
10:00	31.0	31.0	31.0	57	17.6	0	2	135	0.00	30.386 
10:05	31.3	31.3	31.3	57	17.9	0	2	135	0.00	30.386 
10:10	31.5	31.5	31.5	56	17.6	0	2	135	0.00	30.386 
10:15	31.8	31.8	31.8	56	17.9	1	3	292	0.00	30.388 
10:20	31.9	31.9	31.9	55	17.6	0	2	315	0.00	30.388 
10:25	31.9	31.9	31.9	54	17.2	0	1	315	0.00	30.388 
10:30	31.9	31.9	31.9	55	17.6	0	2	315	0.00	30.391 
10:35	32.1	32.1	32.1	55	17.8	0	2	315	0.00	30.391 
10:40	32.1	32.1	32.1	54	17.4	0	1	315	0.00	30.391 
10:45	32.4	32.4	32.4	55	18.1	0	1	315	0.00	30.389 
10:50	32.5	32.5	32.5	55	18.2	0	1	315	0.00	30.389 
10:55	32.7	32.7	32.7	54	17.9	0	2	315	0.00	30.389 
11:00	32.9	32.9	32.9	54	18.1	0	2	315	0.00	30.388 
11:05	33.1	33.1	33.1	54	18.3	0	3	315	0.00	30.388 
11:10	33.1	33.1	33.1	54	18.3	0	2	315	0.00	30.388 
11:15	32.9	32.9	32.9	54	18.1	0	2	292	0.00	30.407 
11:20	32.9	32.9	32.9	54	18.1	1	3	315	0.00	30.407 
11:25	33.1	33.1	33.1	53	17.9	1	4	248	0.00	30.407 
11:30	32.8	32.8	32.8	53	17.6	0	3	270	0.00	30.401 
11:35	32.7	32.7	32.7	54	17.9	0	1	270	0.00	30.401 
11:40	32.9	32.9	32.9	54	18.1	0	1	270	0.00	30.401 
11:45	33.7	33.7	33.7	54	18.8	1	3	270	0.00	30.393 
11:50	34.1	34.1	34.1	54	19.2	1	3	270	0.00	30.393 
11:55	34.4	34.4	34.4	53	19.1	1	4	270	0.00	30.393 
12:00	34.4	34.4	34.4	52	18.6	0	2	270	0.00	30.386 
12:05	34.7	34.7	34.7	52	18.9	0	2	270	0.00	30.386 
12:10	34.7	34.7	34.7	50	18.0	1	3	292	0.00	30.386 
12:15	34.3	34.3	34.3	50	17.6	1	3	315	0.00	30.385 
12:20	34.6	34.6	34.6	52	18.8	1	3	315	0.00	30.385 
12:25	34.7	34.7	34.7	52	18.9	0	4	270	0.00	30.385 
12:30	34.7	34.7	34.7	51	18.4	1	3	270	0.00	30.376 
12:35	34.7	34.7	34.7	51	18.4	1	5	248	0.00	30.376 
12:40	34.7	34.7	34.7	51	18.4	1	3	248	0.00	30.376 
12:45	34.7	34.7	34.7	51	18.4	1	3	248	0.00	30.369 
12:50	34.7	34.7	34.7	50	18.0	0	4	248	0.00	30.369 
12:55	34.9	34.9	34.9	51	18.6	1	3	248	0.00	30.369 
13:00	35.2	35.2	35.2	51	18.9	0	2	248	0.00	30.358 
13:05	35.3	35.3	35.3	52	19.5	1	3	315	0.00	30.358 
13:10	35.3	35.3	35.3	50	18.5	1	3	338	0.00	30.358 
13:15	35.2	35.2	35.2	50	18.4	0	2	338	0.00	30.355 
13:20	35.2	35.2	35.2	51	18.9	1	4	248	0.00	30.355 
13:25	35.3	35.3	35.3	50	18.5	1	3	338	0.00	30.355 
13:30	35.6	35.6	35.6	50	18.8	1	4	270	0.00	30.347 
13:35	35.6	35.6	35.6	50	18.8	0	3	248	0.00	30.347 
13:40	35.8	35.8	35.8	50	19.0	1	6	248	0.00	30.347 
13:45	35.9	35.9	35.9	50	19.1	1	5	338	0.00	30.338 
13:50	36.0	36.0	36.0	48	18.2	1	4	270	0.00	30.338 
13:55	35.8	35.8	35.8	48	18.1	0	3	270	0.00	30.338 
14:00	35.8	35.8	35.8	49	18.5	1	3	270	0.00	30.328 
14:05	35.5	35.5	35.5	47	17.3	1	3	0	0.00	30.328 
14:10	35.6	35.6	35.6	49	18.3	1	3	0	0.00	30.328 
14:15	35.9	35.9	35.9	49	18.6	1	2	315	0.00	30.313 
14:20	35.9	35.9	35.9	48	18.1	1	3	338	0.00	30.313 
14:25	36.0	36.0	36.0	49	18.7	1	4	338	0.00	30.313 
14:30	36.2	36.2	36.2	49	18.9	1	4	270	0.00	30.305 
14:35	36.3	36.3	36.3	47	18.0	1	4	270	0.00	30.305 
14:40	36.2	36.2	36.2	47	17.9	2	4	270	0.00	30.305 
14:45	36.0	36.0	36.0	48	18.2	1	4	270	0.00	30.304 
14:50	36.0	36.0	36.0	48	18.2	1	5	270	0.00	30.304 
14:55	36.0	36.0	36.0	49	18.7	1	2	270	0.00	30.304 
15:00	36.3	36.3	36.3	47	18.0	1	4	270	0.00	30.304 
15:05	36.8	36.8	36.8	48	19.0	1	4	338	0.00	30.304 
15:10	36.6	36.6	36.6	47	18.3	0	2	270	0.00	30.304 
15:15	36.5	36.5	36.5	48	18.7	0	1	270	0.00	30.305 
15:20	36.9	36.9	36.9	49	19.5	1	2	270	0.00	30.305 
15:25	37.2	37.2	37.2	46	18.3	1	3	270	0.00	30.305 
15:30	36.9	36.9	36.9	47	18.6	0	1	270	0.00	30.301 
15:35	36.6	36.6	36.6	47	18.3	0	2	270	0.00	30.301 
15:40	36.6	36.6	36.6	48	18.8	1	3	292	0.00	30.301 
15:45	36.9	36.9	36.9	47	18.6	1	2	292	0.00	30.296 
15:50	36.8	36.8	36.8	46	18.0	0	2	292	0.00	30.296 
15:55	36.6	36.6	36.6	47	18.3	0	2	292	0.00	30.296 
16:00	36.5	36.5	36.5	49	19.2	0	2	292	0.00	30.294 
16:05	36.2	36.2	36.2	48	18.4	1	3	292	0.00	30.294 
16:10	35.9	35.9	35.9	49	18.6	0	2	292	0.00	30.294 
16:15	35.6	35.6	35.6	49	18.3	0	1	292	0.00	30.299 
16:20	35.5	35.5	35.5	50	18.7	0	1	292	0.00	30.299 
16:25	35.5	35.5	35.5	50	18.7	0	1	292	0.00	30.299 
16:30	35.5	35.5	35.5	50	18.7	0	1	292	0.00	30.295 
16:35	35.3	35.3	35.3	50	18.5	0	1	292	0.00	30.295 
16:40	35.2	35.2	35.2	51	18.9	0	1	292	0.00	30.295 
16:45	34.9	34.9	34.9	51	18.6	0	0	---	0.00	30.297 
16:50	34.7	34.7	34.7	52	18.9	0	0	---	0.00	30.297 
16:55	34.4	34.4	34.4	52	18.6	0	1	292	0.00	30.297 
17:00	34.3	34.3	34.3	52	18.5	0	1	292	0.00	30.305 
17:05	34.1	34.1	34.1	52	18.3	0	0	---	0.00	30.305 
17:10	33.8	33.8	33.8	53	18.5	0	0	---	0.00	30.305 
17:15	33.5	33.5	33.5	53	18.2	0	0	---	0.00	30.299 
17:20	33.2	33.2	33.2	53	17.9	0	0	---	0.00	30.299 
17:25	32.8	32.8	32.8	54	18.0	0	0	---	0.00	30.299 
17:30	32.4	32.4	32.4	54	17.6	0	0	---	0.00	30.299 
17:35	31.9	31.9	31.9	55	17.6	0	0	---	0.00	30.299 
17:40	31.5	31.5	31.5	56	17.6	0	0	---	0.00	30.299 
17:45	31.2	31.2	31.2	56	17.4	0	0	---	0.00	30.306 
17:50	30.6	30.6	30.6	57	17.2	0	0	---	0.00	30.306 
17:55	30.1	30.1	30.1	58	17.1	0	0	---	0.00	30.306 
18:00	29.8	29.8	29.8	60	17.6	0	0	---	0.00	30.308 
18:05	29.4	29.4	29.4	61	17.6	0	0	---	0.00	30.308 
18:10	29.1	29.1	29.1	62	17.7	0	0	---	0.00	30.308 
18:15	28.8	28.8	28.8	62	17.4	0	0	---	0.00	30.313 
18:20	28.7	28.7	28.7	64	18.1	0	0	---	0.00	30.313 
18:25	28.7	28.7	28.7	64	18.1	0	0	---	0.00	30.313 
18:30	28.5	28.5	28.5	65	18.3	0	0	---	0.00	30.315 
18:35	28.4	28.4	28.4	65	18.2	0	0	---	0.00	30.315 
18:40	28.2	28.2	28.2	65	18.0	0	0	---	0.00	30.315 
18:45	28.1	28.1	28.1	65	17.9	0	0	---	0.00	30.324 
18:50	27.8	27.8	27.8	65	17.6	0	0	---	0.00	30.324 
18:55	27.6	27.6	27.6	66	17.8	0	0	---	0.00	30.324 
19:00	27.5	27.5	27.5	67	18.0	0	0	---	0.00	30.324 
19:05	27.3	27.3	27.3	67	17.8	0	0	---	0.00	30.324 
19:10	27.0	27.0	27.0	68	17.9	0	0	---	0.00	30.324 
19:15	26.9	26.9	26.9	68	17.8	0	0	---	0.00	30.328 
19:20	26.7	26.7	26.7	68	17.6	0	0	---	0.00	30.328 
19:25	26.4	26.4	26.4	69	17.6	0	0	---	0.00	30.328 
19:30	26.3	26.3	26.3	69	17.5	0	0	---	0.00	30.324 
19:35	26.0	26.0	26.0	70	17.6	0	0	---	0.00	30.324 
19:40	25.8	25.8	25.8	71	17.7	0	0	---	0.00	30.324 
19:45	25.7	25.7	25.7	71	17.6	0	0	---	0.00	30.322 
19:50	25.6	25.6	25.6	72	17.8	0	0	---	0.00	30.322 
19:55	25.4	25.4	25.4	72	17.7	0	0	---	0.00	30.322 
20:00	25.3	25.3	25.3	72	17.6	0	0	---	0.00	30.318 
20:05	25.0	25.0	25.0	72	17.3	0	0	---	0.00	30.318 
20:10	24.8	24.8	24.8	73	17.4	0	0	---	0.00	30.318 
20:15	24.7	24.7	24.7	73	17.3	0	0	---	0.00	30.313 
20:20	24.5	24.5	24.5	73	17.1	0	0	---	0.00	30.313 
20:25	24.5	24.5	24.5	75	17.7	0	0	---	0.00	30.313 
20:30	24.5	24.5	24.5	75	17.7	0	0	---	0.00	30.312 
20:35	24.5	24.5	24.5	75	17.7	0	0	---	0.00	30.312 
20:40	24.4	24.4	24.4	76	17.9	0	0	---	0.00	30.312 
20:45	24.2	24.2	24.2	76	17.7	0	0	---	0.00	30.310 
20:50	24.1	24.1	24.1	76	17.7	0	0	---	0.00	30.310 
20:55	24.1	24.1	24.1	76	17.7	0	0	---	0.00	30.310 
21:00	23.9	23.9	23.9	77	17.8	0	0	---	0.00	30.316 
21:05	23.9	23.9	23.9	77	17.8	0	0	---	0.00	30.316 
21:10	23.9	23.9	23.9	77	17.8	0	0	---	0.00	30.316 
21:15	23.9	23.9	23.9	77	17.8	0	0	---	0.00	30.318 
21:20	23.8	23.8	23.8	77	17.7	0	0	---	0.00	30.318 
21:25	23.8	23.8	23.8	77	17.7	0	0	---	0.00	30.318 
21:30	23.8	23.8	23.8	77	17.7	0	0	---	0.00	30.318 
21:35	23.6	23.6	23.6	77	17.5	0	0	---	0.00	30.318 
21:40	23.5	23.5	23.5	77	17.4	0	0	---	0.00	30.318 
21:45	23.3	23.3	23.3	77	17.2	0	0	---	0.00	30.319 
21:50	23.2	23.2	23.2	78	17.4	0	0	---	0.00	30.319 
21:55	23.0	23.0	23.0	78	17.2	0	0	---	0.00	30.319 
22:00	23.0	23.0	23.0	78	17.2	0	0	---	0.00	30.318 
22:05	22.9	22.9	22.9	79	17.4	0	0	---	0.00	30.318 
22:10	22.7	22.7	22.7	79	17.2	0	0	---	0.00	30.318 
22:15	22.7	22.7	22.7	79	17.2	0	0	---	0.00	30.316 
22:20	22.5	22.5	22.5	79	17.0	0	0	---	0.00	30.316 
22:25	22.5	22.5	22.5	80	17.3	0	0	---	0.00	30.316 
22:30	22.7	22.7	22.7	81	17.8	0	0	---	0.00	30.316 
22:35	23.0	23.0	23.0	81	18.1	0	0	---	0.00	30.316 
22:40	23.3	23.3	23.3	81	18.3	0	0	---	0.00	30.316 
22:45	23.5	23.5	23.5	81	18.5	0	0	---	0.00	30.312 
22:50	23.5	23.5	23.5	81	18.5	0	0	---	0.00	30.312 
22:55	23.3	23.3	23.3	81	18.3	0	0	---	0.00	30.312 
23:00	23.2	23.2	23.2	81	18.3	0	0	---	0.00	30.310 
23:05	23.2	23.2	23.2	80	18.0	0	0	---	0.00	30.310 
23:10	23.0	23.0	23.0	80	17.8	0	0	---	0.00	30.310 
23:15	22.9	22.9	22.9	80	17.7	0	0	---	0.00	30.309 
23:20	22.7	22.7	22.7	80	17.5	0	0	---	0.00	30.309 
23:25	22.5	22.5	22.5	81	17.6	0	0	---	0.00	30.309 
23:30	22.5	22.5	22.5	81	17.6	0	0	---	0.00	30.311 
23:35	22.9	22.9	22.9	82	18.2	0	0	---	0.00	30.311 
23:40	23.6	23.6	23.6	82	18.9	0	1	292	0.00	30.311 
23:45	24.2	24.2	24.2	81	19.2	0	1	292	0.00	30.310 
23:50	24.5	24.5	24.5	80	19.2	0	0	---	0.00	30.310 
23:55	24.7	24.7	24.7	79	19.1	0	0	---	0.00	30.310 

CoCoRaHS
IN-AL-39
A2 Web Hosting
Creative Commons License
GoDaddy
search engine by freefind advanced

loaded 2018-11-17 12:46:16 • last modified 2010-11-18 10:43:29
Privacy PolicyDisclaimer
• wx.awcolley.com is powered by PmWiki v.2002016 •
• all content (unless otherwise noted) © 2018 A W Colley